Rondeau, Canada
Current Conditions -  °F | °C
As of 6:00 AM on Monday 20 Oct 2014 (Local Time) from CYCK Reporting Station
Overcast Overcast  
Wind Chill: 50°   Ceiling: 10000
Heat Index: 50°   Visibility: 9mi
Dew Point: 43°   Wind: 12mph
Humidity: 76%   Direction: 230°SW
Pressure: 29.91"   Gusts: 17mph
Location:  42.28°N, 81.87°W
Report Text: CYCK 201000Z AUTO 23010G15KT 9SM FEW046 BKN100 OVC120 10/06 A2991 RMK SLP130
Loading
Personal Weather Stations






























Interactive Weather Map New forecast layout! Learn more

10-Day Weather Forecast

Advertisements
Track Severe Weather on mobile